createdAt,value
2023-01-23T00:02:12.412Z,0.45
2023-01-23T00:05:03.085Z,1.45
2023-01-23T00:07:52.016Z,0.70
2023-01-23T00:10:40.887Z,0.88
2023-01-23T00:13:29.743Z,0.75
2023-01-23T00:16:19.349Z,0.70
2023-01-23T00:19:10.962Z,0.52
2023-01-23T00:22:02.508Z,0.60
2023-01-23T00:24:51.406Z,0.52
2023-01-23T00:27:40.084Z,0.63
2023-01-23T00:30:29.158Z,2.83
2023-01-23T00:33:17.938Z,0.50
2023-01-23T00:36:07.593Z,0.35
2023-01-23T00:38:57.989Z,0.75
2023-01-23T00:41:47.360Z,0.45
2023-01-23T00:44:36.093Z,0.95
2023-01-23T00:47:24.870Z,2.42
2023-01-23T00:50:14.731Z,0.55
2023-01-23T00:53:03.397Z,0.60
2023-01-23T00:55:53.596Z,0.80
2023-01-23T00:58:44.166Z,0.55
2023-01-23T01:01:33.995Z,0.40
2023-01-23T01:04:22.837Z,1.08
2023-01-23T01:07:11.526Z,0.47
2023-01-23T01:10:00.166Z,0.30
2023-01-23T01:12:51.064Z,0.30
2023-01-23T01:15:40.420Z,0.95
2023-01-23T01:18:29.457Z,0.40
2023-01-23T01:21:19.802Z,0.50
2023-01-23T01:24:08.963Z,0.68
2023-01-23T01:26:57.681Z,0.43
2023-01-23T01:29:47.720Z,0.30
2023-01-23T01:32:38.881Z,0.43
2023-01-23T01:35:27.646Z,0.45
2023-01-23T01:38:16.409Z,0.40
2023-01-23T01:41:05.698Z,0.30
2023-01-23T01:43:57.125Z,0.30
2023-01-23T01:46:48.967Z,0.20
2023-01-23T01:49:37.714Z,0.25
2023-01-23T01:52:27.041Z,0.40
2023-01-23T01:55:15.868Z,0.52
2023-01-23T01:58:04.664Z,0.95
2023-01-23T02:00:53.386Z,0.68
2023-01-23T02:03:45.259Z,0.52
2023-01-23T02:06:34.386Z,2.05
2023-01-23T02:09:27.297Z,0.73
2023-01-23T02:12:15.935Z,0.77
2023-01-23T02:15:05.707Z,0.35
2023-01-23T02:17:54.959Z,0.47
2023-01-23T02:20:45.122Z,3.60
2023-01-23T02:23:40.325Z,0.47
2023-01-23T02:26:33.063Z,3.72
2023-01-23T02:29:21.861Z,0.30
2023-01-23T02:32:10.737Z,3.60
2023-01-23T02:35:02.590Z,0.40
2023-01-23T02:37:54.181Z,0.30
2023-01-23T02:40:44.290Z,0.40
2023-01-23T02:43:37.248Z,0.20
2023-01-23T02:46:26.388Z,0.30
2023-01-23T02:49:15.609Z,0.10
2023-01-23T02:52:04.505Z,0.38
2023-01-23T02:54:53.140Z,0.75
2023-01-23T02:57:41.934Z,0.80
2023-01-23T03:00:31.109Z,0.73
2023-01-23T03:03:19.995Z,0.70
2023-01-23T03:06:08.967Z,2.47
2023-01-23T03:08:59.877Z,3.17
2023-01-23T03:11:48.983Z,0.20
2023-01-23T03:14:39.891Z,0.47
2023-01-23T03:17:30.217Z,0.30
2023-01-23T03:20:20.502Z,0.30
2023-01-23T03:23:09.497Z,1.75
2023-01-23T03:25:59.763Z,1.13
2023-01-23T03:29:06.320Z,0.40
2023-01-23T03:31:55.035Z,1.58
2023-01-23T03:34:45.340Z,1.42
2023-01-23T03:37:34.028Z,2.78
2023-01-23T03:40:42.416Z,0.57
2023-01-23T03:43:32.974Z,0.20
2023-01-23T03:46:21.997Z,0.30
2023-01-23T03:49:10.769Z,2.13
2023-01-23T03:52:01.256Z,0.88
2023-01-23T03:54:50.017Z,1.35
2023-01-23T03:57:38.720Z,0.63
2023-01-23T04:00:27.867Z,0.35
2023-01-23T04:03:16.652Z,0.10
2023-01-23T04:06:05.744Z,0.57
2023-01-23T04:08:57.028Z,1.00
2023-01-23T04:11:45.749Z,0.77
2023-01-23T04:14:37.473Z,0.60
2023-01-23T04:17:26.359Z,0.30
2023-01-23T04:20:15.846Z,0.38
2023-01-23T04:23:04.671Z,0.22
2023-01-23T04:25:55.066Z,0.30
2023-01-23T04:28:43.804Z,0.95
2023-01-23T04:31:36.015Z,0.38
2023-01-23T04:34:24.803Z,0.10
2023-01-23T04:37:13.583Z,0.93
2023-01-23T04:40:02.299Z,0.20
2023-01-23T04:42:52.462Z,0.17
2023-01-23T04:45:41.285Z,0.45
2023-01-23T04:48:30.055Z,1.33
2023-01-23T04:51:18.803Z,2.10
2023-01-23T04:54:07.697Z,1.00
2023-01-23T04:56:56.442Z,0.40
2023-01-23T04:59:46.565Z,0.10
2023-01-23T05:02:35.735Z,0.30
2023-01-23T05:05:24.758Z,1.25
2023-01-23T05:08:13.858Z,0.15
2023-01-23T05:11:02.888Z,0.50
2023-01-23T05:13:51.740Z,1.65
2023-01-23T05:16:41.823Z,3.05
2023-01-23T05:19:30.551Z,2.22
2023-01-23T05:22:19.483Z,3.63
2023-01-23T05:25:09.592Z,7.45
2023-01-23T05:27:58.483Z,5.80
2023-01-23T05:30:47.577Z,4.60
2023-01-23T05:33:37.779Z,4.82
2023-01-23T05:36:26.704Z,6.28
2023-01-23T05:39:15.560Z,3.65
2023-01-23T05:42:04.306Z,5.32
2023-01-23T05:44:53.357Z,3.13
2023-01-23T05:47:42.307Z,6.70
2023-01-23T05:50:34.413Z,3.30
2023-01-23T05:53:23.315Z,5.13
2023-01-23T05:56:14.449Z,2.28
2023-01-23T05:59:03.792Z,2.00
2023-01-23T06:01:52.562Z,4.22
2023-01-23T06:04:41.450Z,3.75
2023-01-23T06:07:31.746Z,4.18
2023-01-23T06:10:20.909Z,6.05
2023-01-23T06:13:09.830Z,2.17
2023-01-23T06:15:58.672Z,2.38
2023-01-23T06:18:47.401Z,2.42
2023-01-23T06:21:36.125Z,7.95
2023-01-23T06:24:26.562Z,2.75
2023-01-23T06:27:15.418Z,1.23
2023-01-23T06:30:04.129Z,1.73
2023-01-23T06:32:52.807Z,2.35
2023-01-23T06:35:41.597Z,5.22
2023-01-23T06:38:30.865Z,4.65
2023-01-23T06:41:21.086Z,2.85
2023-01-23T06:44:09.954Z,5.47
2023-01-23T06:46:58.769Z,4.00
2023-01-23T06:49:47.657Z,5.68
2023-01-23T06:52:36.401Z,3.53
2023-01-23T06:55:25.333Z,4.72
2023-01-23T06:58:15.447Z,6.75
2023-01-23T07:01:10.806Z,3.95
2023-01-23T07:03:59.472Z,5.30
2023-01-23T07:06:48.403Z,3.92
2023-01-23T07:09:37.021Z,3.95
2023-01-23T07:12:26.318Z,2.80
2023-01-23T07:15:16.492Z,3.53
2023-01-23T07:18:05.748Z,2.25
2023-01-23T07:20:54.412Z,4.50
2023-01-23T07:23:43.189Z,3.13
2023-01-23T07:26:31.930Z,2.92
2023-01-23T07:29:20.775Z,2.90
2023-01-23T07:32:11.375Z,2.20
2023-01-23T07:35:00.291Z,1.33
2023-01-23T07:37:49.190Z,10.75
2023-01-23T07:40:39.110Z,2.03
2023-01-23T07:43:28.064Z,5.63
2023-01-23T07:46:16.913Z,7.43
2023-01-23T07:49:07.495Z,4.38
2023-01-23T07:51:56.303Z,2.10
2023-01-23T07:54:45.347Z,1.88
2023-01-23T07:57:34.372Z,6.03
2023-01-23T08:00:28.448Z,1.55
2023-01-23T08:03:18.744Z,3.45
2023-01-23T08:06:09.999Z,2.20
2023-01-23T08:08:58.668Z,2.53
2023-01-23T08:11:47.402Z,1.98
2023-01-23T08:14:36.183Z,1.35
2023-01-23T08:17:24.892Z,3.25
2023-01-23T08:20:14.607Z,1.77
2023-01-23T08:23:04.719Z,0.93
2023-01-23T08:25:55.265Z,0.90
2023-01-23T08:28:44.681Z,2.92
2023-01-23T08:31:33.671Z,2.25
2023-01-23T08:34:24.055Z,1.17
2023-01-23T08:37:12.783Z,1.63
2023-01-23T08:40:02.933Z,2.72
2023-01-23T08:42:51.786Z,2.08
2023-01-23T08:45:40.459Z,1.33
2023-01-23T08:48:34.188Z,1.08
2023-01-23T08:51:23.283Z,1.33
2023-01-23T08:54:11.969Z,4.25
2023-01-23T08:57:02.868Z,1.30
2023-01-23T08:59:51.528Z,0.60
2023-01-23T09:02:40.244Z,1.65
2023-01-23T09:05:29.725Z,1.08
2023-01-23T09:08:18.626Z,0.57
2023-01-23T09:11:10.273Z,2.40
2023-01-23T09:14:00.423Z,0.65
2023-01-23T09:16:49.154Z,0.90
2023-01-23T09:19:37.963Z,1.08
2023-01-23T09:22:26.775Z,0.82
2023-01-23T09:25:15.746Z,0.60
2023-01-23T09:28:05.093Z,0.55
2023-01-23T09:30:55.294Z,0.65
2023-01-23T09:33:44.295Z,1.08
2023-01-23T09:36:42.423Z,0.70
2023-01-23T09:39:31.773Z,0.88
2023-01-23T09:42:23.216Z,0.60
2023-01-23T09:45:14.290Z,0.80
2023-01-23T09:48:17.913Z,2.55
2023-01-23T09:51:14.350Z,0.70
2023-01-23T09:54:17.994Z,0.68
2023-01-23T09:57:14.605Z,0.47
2023-01-23T10:00:07.952Z,0.50
2023-01-23T10:02:57.253Z,0.85
2023-01-23T10:05:54.513Z,1.40
2023-01-23T10:08:53.691Z,1.00
2023-01-23T10:11:50.124Z,2.03
2023-01-23T10:14:53.956Z,0.82
2023-01-23T10:17:46.903Z,0.65
2023-01-23T10:20:51.218Z,0.40
2023-01-23T10:23:48.420Z,0.38
2023-01-23T10:26:41.860Z,0.55
2023-01-23T10:29:32.333Z,0.82
2023-01-23T10:32:26.692Z,1.15
2023-01-23T10:35:19.464Z,0.68
2023-01-23T10:38:16.879Z,0.60
2023-01-23T10:41:21.177Z,0.57
2023-01-23T10:44:17.212Z,1.00
2023-01-23T10:47:17.371Z,0.50
2023-01-23T10:50:07.558Z,0.52
2023-01-23T10:53:08.011Z,0.40
2023-01-23T10:56:00.820Z,1.67
2023-01-23T10:58:49.957Z,1.48
2023-01-23T11:01:42.195Z,0.60
2023-01-23T11:04:33.514Z,0.82
2023-01-23T11:07:23.899Z,0.50
2023-01-23T11:10:20.265Z,0.40
2023-01-23T11:13:27.431Z,0.40
2023-01-23T11:16:17.112Z,0.45
2023-01-23T11:19:14.134Z,0.30
2023-01-23T11:22:03.979Z,0.20
2023-01-23T11:24:52.744Z,0.20
2023-01-23T11:27:41.345Z,0.40
2023-01-23T11:30:43.598Z,0.60
2023-01-23T11:33:41.063Z,0.43
2023-01-23T11:36:46.794Z,0.50
2023-01-23T11:39:42.464Z,0.40
2023-01-23T11:42:31.155Z,0.40
2023-01-23T11:45:33.564Z,1.27
2023-01-23T11:48:36.100Z,0.68
2023-01-23T11:51:29.600Z,0.30
2023-01-23T11:54:37.994Z,0.60
2023-01-23T11:57:35.543Z,0.70
2023-01-23T12:00:31.288Z,2.38
2023-01-23T12:03:55.865Z,0.30
2023-01-23T12:06:58.206Z,0.22
2023-01-23T12:09:53.969Z,0.30
2023-01-23T12:12:53.337Z,0.47
2023-01-23T12:15:46.383Z,0.55
2023-01-23T12:18:40.536Z,0.85
2023-01-23T12:21:35.164Z,0.20
2023-01-23T12:24:36.970Z,0.40
2023-01-23T12:27:30.174Z,0.35
2023-01-23T12:30:42.446Z,0.30
2023-01-23T12:33:43.707Z,0.35
2023-01-23T12:37:08.178Z,1.55
2023-01-23T12:40:10.031Z,0.95
2023-01-23T12:43:02.730Z,0.28
2023-01-23T12:45:54.990Z,1.85
2023-01-23T12:48:47.257Z,0.20
2023-01-23T12:51:39.413Z,0.30
2023-01-23T12:54:34.982Z,0.30
2023-01-23T12:57:52.247Z,0.73
2023-01-23T13:01:07.395Z,0.30
2023-01-23T13:04:12.918Z,0.20
2023-01-23T13:07:10.413Z,0.50
2023-01-23T13:10:47.525Z,0.30
2023-01-23T13:13:37.948Z,0.50
2023-01-23T13:16:30.019Z,0.40
2023-01-23T13:19:43.323Z,0.30
2023-01-23T13:22:33.912Z,0.50
2023-01-23T13:25:22.742Z,7.22
2023-01-23T13:28:44.031Z,13.95
2023-01-23T13:31:47.078Z,117.10
2023-01-23T13:34:40.255Z,89.18
2023-01-23T13:37:51.993Z,48.60
2023-01-23T13:41:03.548Z,49.45
2023-01-23T13:43:55.807Z,43.35
2023-01-23T14:25:40.047Z,35.42
2023-01-23T14:28:29.183Z,25.75
2023-01-23T14:31:24.343Z,23.40
2023-01-23T14:34:18.818Z,24.63
2023-01-23T14:37:12.721Z,24.70
2023-01-23T14:40:11.731Z,22.73
2023-01-23T14:43:03.548Z,19.92
2023-01-23T14:46:00.890Z,18.70
2023-01-23T14:48:53.313Z,20.60
2023-01-23T14:51:42.228Z,20.95
2023-01-23T14:54:34.482Z,21.77
2023-01-23T14:57:24.159Z,23.52
2023-01-23T15:00:19.213Z,23.58
2023-01-23T15:03:08.459Z,19.90
2023-01-23T15:05:59.538Z,19.55
2023-01-23T15:08:49.129Z,25.50
2023-01-23T15:11:39.285Z,21.67
2023-01-23T15:14:30.551Z,20.88
2023-01-23T15:17:21.380Z,22.80
2023-01-23T15:20:31.983Z,21.35
2023-01-23T15:23:31.508Z,20.30
2023-01-23T15:26:34.213Z,20.33
2023-01-23T15:29:24.706Z,22.40
2023-01-23T15:32:26.980Z,24.88
2023-01-23T15:35:18.283Z,23.02
2023-01-23T15:38:09.586Z,22.92
2023-01-23T15:40:59.380Z,21.17
2023-01-23T15:43:48.070Z,22.25
2023-01-23T15:46:38.168Z,24.52
2023-01-23T15:49:26.942Z,26.42
2023-01-23T15:52:20.910Z,24.80
2023-01-23T15:55:12.344Z,24.50
2023-01-23T15:58:02.449Z,24.00
2023-01-23T16:00:51.768Z,19.70
2023-01-23T16:03:42.036Z,30.75
2023-01-23T16:06:30.807Z,24.15
2023-01-23T16:09:25.369Z,18.90
2023-01-23T16:12:16.276Z,24.48
2023-01-23T16:15:08.143Z,24.60
2023-01-23T16:17:57.392Z,25.02
2023-01-23T16:20:47.572Z,23.80
2023-01-23T16:23:47.278Z,22.10
2023-01-23T16:26:43.812Z,22.65
2023-01-23T16:29:34.033Z,22.00
2023-01-23T16:32:23.138Z,17.88
2023-01-23T16:35:13.110Z,18.75
2023-01-23T16:38:03.730Z,21.23
2023-01-23T16:40:53.640Z,20.27
2023-01-23T16:43:42.411Z,24.52
2023-01-23T16:46:31.274Z,26.63
2023-01-23T16:49:20.184Z,24.00
2023-01-23T16:52:08.923Z,25.55
2023-01-23T16:54:59.209Z,26.02
2023-01-23T16:57:48.610Z,20.15
2023-01-23T17:00:37.526Z,20.45
2023-01-23T17:03:29.112Z,25.13
2023-01-23T17:06:18.503Z,23.58
2023-01-23T17:09:07.188Z,23.40
2023-01-23T17:11:58.153Z,24.55
2023-01-23T17:14:48.483Z,18.13
2023-01-23T17:17:37.557Z,19.52
2023-01-23T17:20:28.562Z,17.33
2023-01-23T17:23:17.569Z,14.38
2023-01-23T17:26:06.586Z,19.63
2023-01-23T17:28:56.620Z,11.77
2023-01-23T17:31:45.625Z,16.13
2023-01-23T17:34:49.004Z,11.68
2023-01-23T17:37:38.794Z,15.30
2023-01-23T17:40:28.292Z,10.85
2023-01-23T17:43:18.310Z,15.70
2023-01-23T17:46:08.700Z,12.43
2023-01-23T17:48:58.174Z,10.80
2023-01-23T17:51:46.982Z,10.82
2023-01-23T17:54:37.492Z,11.02
2023-01-23T17:57:26.274Z,9.90
2023-01-23T18:00:18.851Z,8.20
2023-01-23T18:03:10.732Z,8.60
2023-01-23T18:05:59.401Z,10.93
2023-01-23T18:08:48.282Z,9.65
2023-01-23T18:11:37.909Z,9.40
2023-01-23T18:14:33.117Z,8.95
2023-01-23T18:17:29.200Z,8.38
2023-01-23T18:20:21.308Z,8.57
2023-01-23T18:23:13.350Z,10.30
2023-01-23T18:26:11.097Z,7.40
2023-01-23T18:29:05.320Z,9.10
2023-01-23T18:32:10.023Z,7.22
2023-01-23T18:35:03.366Z,7.13
2023-01-23T18:37:57.891Z,5.80
2023-01-23T18:41:00.158Z,7.78
2023-01-23T18:43:52.249Z,7.82
2023-01-23T18:46:41.333Z,6.78
2023-01-23T18:49:33.014Z,6.43
2023-01-23T18:52:25.005Z,7.13
2023-01-23T18:55:25.750Z,4.95
2023-01-23T18:58:30.614Z,8.35
2023-01-23T19:01:24.364Z,6.38
2023-01-23T19:04:15.399Z,8.82
2023-01-23T19:07:04.665Z,6.88
2023-01-23T19:09:53.765Z,5.82
2023-01-23T19:12:48.460Z,6.03
2023-01-23T19:15:42.623Z,6.40
2023-01-23T19:18:43.492Z,4.93
2023-01-23T19:21:33.362Z,4.97
2023-01-23T19:24:22.252Z,4.30
2023-01-23T19:27:17.414Z,6.93
2023-01-23T19:30:08.691Z,5.93
2023-01-23T19:32:57.287Z,5.22
2023-01-23T19:35:46.294Z,5.07
2023-01-23T19:38:34.909Z,4.72
2023-01-23T19:41:24.964Z,4.30
2023-01-23T19:44:14.509Z,6.25
2023-01-23T19:47:06.757Z,4.43
2023-01-23T19:49:55.455Z,5.45
2023-01-23T19:52:45.348Z,6.75
2023-01-23T19:55:35.845Z,4.07
2023-01-23T19:58:24.905Z,6.38
2023-01-23T20:01:23.860Z,5.60
2023-01-23T20:04:17.021Z,3.50
2023-01-23T20:07:05.747Z,3.33
2023-01-23T20:09:54.420Z,2.95
2023-01-23T20:12:44.364Z,3.55
2023-01-23T20:15:33.857Z,4.55
2023-01-23T20:18:23.183Z,2.95
2023-01-23T20:21:13.343Z,3.20
2023-01-23T20:24:02.088Z,4.05
2023-01-23T20:26:50.842Z,3.53
2023-01-23T20:29:39.832Z,3.15
2023-01-23T20:32:28.902Z,8.85
2023-01-23T20:35:17.634Z,2.88
2023-01-23T20:38:10.714Z,3.25
2023-01-23T20:41:04.837Z,4.75
2023-01-23T20:43:56.476Z,3.92
2023-01-23T20:46:45.590Z,5.47
2023-01-23T20:49:34.329Z,3.72
2023-01-23T20:52:43.518Z,9.05
2023-01-23T20:55:33.544Z,2.90
2023-01-23T20:58:42.204Z,5.95
2023-01-23T21:01:53.613Z,4.60
2023-01-23T21:04:45.511Z,8.63
2023-01-23T21:07:34.509Z,2.63
2023-01-23T21:10:24.328Z,4.63
2023-01-23T21:13:15.730Z,2.83
2023-01-23T21:16:09.097Z,4.63
2023-01-23T21:18:57.972Z,21.05
2023-01-23T21:21:46.947Z,28.05
2023-01-23T21:24:36.498Z,20.65
2023-01-23T21:27:26.097Z,14.38
2023-01-23T21:30:18.191Z,15.32
2023-01-23T21:33:07.206Z,12.35
2023-01-23T21:35:56.512Z,10.60
2023-01-23T21:38:45.604Z,13.02
2023-01-23T21:41:34.465Z,11.15
2023-01-23T21:44:23.171Z,10.23
2023-01-23T21:47:15.368Z,12.35
2023-01-23T21:50:04.291Z,11.70
2023-01-23T21:52:53.195Z,8.98
2023-01-23T21:55:41.905Z,9.05
2023-01-23T21:58:30.776Z,8.30
2023-01-23T22:01:33.725Z,10.75
2023-01-23T22:04:24.192Z,7.00
2023-01-23T22:07:13.019Z,6.15
2023-01-23T22:10:01.970Z,7.05
2023-01-23T22:12:53.911Z,6.13
2023-01-23T22:15:42.699Z,5.78
2023-01-23T22:18:31.691Z,6.60
2023-01-23T22:21:21.929Z,9.65
2023-01-23T22:24:10.767Z,5.45
2023-01-23T22:26:59.839Z,5.50
2023-01-23T22:29:48.483Z,5.85
2023-01-23T22:32:37.075Z,5.50
2023-01-23T22:35:25.650Z,5.53
2023-01-23T22:38:16.781Z,5.38
2023-01-23T22:41:07.151Z,6.72
2023-01-23T22:43:55.831Z,5.30
2023-01-23T22:46:44.529Z,4.22
2023-01-23T22:49:33.282Z,4.28
2023-01-23T22:52:22.097Z,5.03
2023-01-23T22:55:12.857Z,5.65
2023-01-23T22:58:01.608Z,4.72
2023-01-23T23:00:53.137Z,4.07
2023-01-23T23:03:42.127Z,5.47
2023-01-23T23:06:33.605Z,4.60
2023-01-23T23:09:22.370Z,4.43
2023-01-23T23:12:13.679Z,3.70
2023-01-23T23:15:02.826Z,4.13
2023-01-23T23:17:51.557Z,4.55
2023-01-23T23:20:40.623Z,4.70
2023-01-23T23:23:29.781Z,5.22
2023-01-23T23:26:18.675Z,4.13
2023-01-23T23:29:09.257Z,4.75
2023-01-23T23:31:58.079Z,3.47
2023-01-23T23:34:47.168Z,3.30
2023-01-23T23:37:36.123Z,7.95
2023-01-23T23:40:24.720Z,3.10
2023-01-23T23:43:13.302Z,3.30
2023-01-23T23:46:05.348Z,6.55
2023-01-23T23:48:54.047Z,3.08
2023-01-23T23:51:46.055Z,3.30
2023-01-23T23:54:34.704Z,3.08
2023-01-23T23:57:23.372Z,4.70
